Time;durP1;ratioP1;P1;durP2;ratioP2;P2;SDS_P1;SDS_P2;PMS_P1;PMS_P2;Temp;Humidity;BMP_temperature;BMP_pressure;BME280_temperature;BME280_humidity;BME280_pressure;Samples;Min_cycle;Max_cycle;Signal;HPM_P1;HPM_P2
2023/05/21 00:00:23;;;;;;;8.77;8.02;;;;;;;14.05;82.79;94770.47;5074963;28;20197;-69
2023/05/21 00:02:51;;;;;;;9.00;8.20;;;;;;;13.99;82.28;94777.56;5074582;28;20200;-69
2023/05/21 00:05:20;;;;;;;8.32;7.57;;;;;;;13.97;82.67;94767.63;5074808;28;20213;-69
2023/05/21 00:07:48;;;;;;;8.57;7.85;;;;;;;13.95;82.38;94777.53;5075822;28;20266;-69
2023/05/21 00:10:18;;;;;;;8.13;7.35;;;;;;;13.91;82.49;94769.19;5075429;28;20211;-68
2023/05/21 00:12:48;;;;;;;8.30;7.50;;;;;;;13.87;82.61;94768.34;5074401;28;20232;-68
2023/05/21 00:15:16;;;;;;;7.97;7.18;;;;;;;13.87;82.84;94765.56;5074309;28;20204;-68
2023/05/21 00:17:44;;;;;;;8.38;7.40;;;;;;;13.85;82.68;94767.13;5074329;28;20255;-68
2023/05/21 00:20:13;;;;;;;7.97;7.20;;;;;;;13.83;82.52;94759.19;5075614;28;20219;-68
2023/05/21 00:22:47;;;;;;;8.05;7.35;;;;;;;13.80;82.38;94765.50;5074255;28;20193;-68
2023/05/21 00:25:17;;;;;;;8.43;7.63;;;;;;;13.77;82.37;94759.94;5075349;28;20231;-68
2023/05/21 00:27:44;;;;;;;8.10;7.30;;;;;;;13.72;82.80;94759.09;5075154;28;20201;-68
2023/05/21 00:30:15;;;;;;;8.57;7.80;;;;;;;13.70;82.96;94755.91;5075005;28;20625;-68
2023/05/21 00:32:47;;;;;;;7.90;6.80;;;;;;;13.65;82.78;94759.03;5058141;28;20201;-68
2023/05/21 00:35:15;;;;;;;8.90;8.10;;;;;;;13.62;82.57;94759.78;5074930;28;20185;-68
2023/05/21 00:37:44;;;;;;;8.82;7.88;;;;;;;13.59;82.53;94756.97;5075320;28;20204;-68
2023/05/21 00:40:15;;;;;;;8.40;7.60;;;;;;;13.52;82.47;94745.81;5074410;28;20193;-68
2023/05/21 00:42:47;;;;;;;7.65;6.95;;;;;;;13.42;82.44;94750.03;5075226;28;20252;-68
2023/05/21 00:45:20;;;;;;;8.05;7.15;;;;;;;13.40;82.75;94749.66;5074963;28;20217;-68
2023/05/21 00:47:53;;;;;;;9.77;7.82;;;;;;;13.37;82.75;94742.09;5074251;28;20201;-68
2023/05/21 00:50:21;;;;;;;8.30;7.50;;;;;;;13.30;82.90;94734.50;5074951;28;20238;-68
2023/05/21 00:52:50;;;;;;;8.40;7.60;;;;;;;13.31;83.16;94743.59;5074903;28;20192;-69
2023/05/21 00:55:19;;;;;;;8.23;7.53;;;;;;;13.26;82.63;94741.97;5073897;28;20199;-69
2023/05/21 00:57:48;;;;;;;8.00;7.22;;;;;;;13.20;82.31;94735.91;5074421;28;20212;-69
2023/05/21 01:00:19;;;;;;;8.07;7.28;;;;;;;13.11;82.02;94748.44;5075166;28;20256;-69
2023/05/21 01:02:46;;;;;;;7.70;7.00;;;;;;;13.01;82.04;94750.72;5074156;28;20297;-69
2023/05/21 01:05:15;;;;;;;8.10;7.20;;;;;;;13.00;82.86;94743.59;5073713;28;20225;-69
2023/05/21 01:07:45;;;;;;;8.02;7.22;;;;;;;13.01;83.10;94742.41;5074981;28;20212;-69
2023/05/21 01:10:13;;;;;;;7.95;7.25;;;;;;;13.05;83.44;94738.91;5074066;28;20201;-69
2023/05/21 01:12:46;;;;;;;7.43;6.65;;;;;;;13.07;83.22;94747.63;5074604;28;20213;-69
2023/05/21 01:15:14;;;;;;;8.25;7.38;;;;;;;13.09;83.17;94739.75;5074028;28;20280;-68
2023/05/21 01:17:48;;;;;;;7.72;7.03;;;;;;;13.09;83.06;94740.53;5073461;28;20244;-69
2023/05/21 01:20:18;;;;;;;8.52;7.80;;;;;;;13.06;82.47;94732.97;5073703;28;20236;-69
2023/05/21 01:22:53;;;;;;;7.80;7.10;;;;;;;12.99;82.60;94732.88;5074497;28;20193;-69
2023/05/21 01:25:20;;;;;;;7.82;7.03;;;;;;;12.96;82.59;94728.94;5074660;28;20248;-69
2023/05/21 01:27:50;;;;;;;8.20;7.20;;;;;;;12.90;82.25;94735.16;5073834;28;20509;-69
2023/05/21 01:30:20;;;;;;;9.05;7.15;;;;;;;12.82;82.43;94736.22;5078441;28;20201;-69
2023/05/21 01:32:56;;;;;;;7.85;7.22;;;;;;;12.82;82.47;94728.75;5077761;28;20221;-69
2023/05/21 01:35:27;;;;;;;9.05;7.68;;;;;;;12.80;82.57;94720.00;5078663;28;20193;-69
2023/05/21 01:38:05;;;;;;;7.80;7.05;;;;;;;12.80;82.87;94727.50;5077376;28;20197;-69
2023/05/21 01:40:38;;;;;;;9.05;6.72;;;;;;;12.80;82.75;94725.53;5077606;28;20197;-68
2023/05/21 01:43:08;;;;;;;9.23;7.38;;;;;;;12.80;82.44;94727.50;5078037;28;20594;-69
2023/05/21 01:45:40;;;;;;;8.10;7.30;;;;;;;12.73;82.54;94722.69;5077599;28;20329;-69
2023/05/21 01:48:12;;;;;;;8.15;7.20;;;;;;;12.68;82.96;94725.78;5078424;28;20281;-69
2023/05/21 01:50:41;;;;;;;8.02;6.65;;;;;;;12.67;83.20;94732.47;5078243;28;20229;-69
2023/05/21 01:53:10;;;;;;;8.30;6.90;;;;;;;12.69;83.28;94721.84;5077267;28;20197;-69
2023/05/21 01:55:42;;;;;;;8.68;6.97;;;;;;;12.68;83.26;94725.78;5077276;28;20195;-69
2023/05/21 01:58:11;;;;;;;7.28;6.57;;;;;;;12.62;82.64;94719.75;5077325;28;20196;-69
2023/05/21 02:00:44;;;;;;;7.93;7.13;;;;;;;12.54;82.77;94718.06;5078143;28;20208;-69
2023/05/21 02:03:13;;;;;;;7.45;6.85;;;;;;;12.50;82.93;94715.25;5077722;28;20185;-69
2023/05/21 02:05:41;;;;;;;8.30;7.50;;;;;;;12.56;83.32;94712.94;5078030;28;20232;-69
2023/05/21 02:08:11;;;;;;;11.57;7.20;;;;;;;12.59;83.06;94714.97;5077360;28;20239;-69
2023/05/21 02:10:42;;;;;;;8.10;6.68;;;;;;;12.62;83.07;94710.66;5077956;28;20181;-69
2023/05/21 02:13:10;;;;;;;8.80;6.70;;;;;;;12.60;83.09;94707.47;5076917;28;20201;-69
2023/05/21 02:15:41;;;;;;;8.38;7.05;;;;;;;12.57;82.71;94703.50;5077847;28;20193;-69
2023/05/21 02:18:08;;;;;;;8.10;7.30;;;;;;;12.54;83.22;94704.25;5077598;28;20319;-69
2023/05/21 02:20:37;;;;;;;8.48;7.20;;;;;;;12.57;83.54;94706.25;5077485;28;20514;-69
2023/05/21 02:23:05;;;;;;;8.30;6.40;;;;;;;12.51;82.87;94705.78;5077433;28;20197;-68
2023/05/21 02:25:34;;;;;;;8.15;6.55;;;;;;;12.49;83.19;94712.84;5077663;28;20220;-68
2023/05/21 02:28:03;;;;;;;7.15;6.55;;;;;;;12.49;83.32;94710.91;5077626;28;20178;-68
2023/05/21 02:30:30;;;;;;;7.70;6.90;;;;;;;12.50;83.35;94706.97;5077421;28;20609;-68
2023/05/21 02:33:01;;;;;;;7.65;6.43;;;;;;;12.50;83.78;94709.72;5077208;28;20597;-68
2023/05/21 02:35:31;;;;;;;7.22;6.55;;;;;;;12.44;83.36;94713.97;5077518;28;20238;-68
2023/05/21 02:38:01;;;;;;;8.32;7.00;;;;;;;12.42;83.49;94716.34;5077702;28;20196;-68
2023/05/21 02:40:32;;;;;;;6.50;6.00;;;;;;;12.36;83.12;94712.28;5076191;28;20262;-68
2023/05/21 02:43:01;;;;;;;7.38;6.68;;;;;;;12.35;83.84;94705.16;5076990;28;20185;-68
2023/05/21 02:45:29;;;;;;;7.75;6.95;;;;;;;12.37;84.08;94702.03;5077440;28;20294;-68
2023/05/21 02:48:00;;;;;;;9.35;6.75;;;;;;;12.37;84.01;94702.81;5076885;28;20565;-68
2023/05/21 02:50:31;;;;;;;8.07;7.30;;;;;;;12.38;84.07;94696.13;5077236;28;20589;-68
2023/05/21 02:52:58;;;;;;;10.80;6.90;;;;;;;12.39;84.29;94699.69;5077100;28;20288;-69
2023/05/21 02:55:26;;;;;;;8.32;6.50;;;;;;;12.38;84.09;94707.19;5077152;28;20192;-68
2023/05/21 02:57:54;;;;;;;7.25;6.55;;;;;;;12.37;84.33;94691.75;5076155;28;20231;-68
2023/05/21 03:00:27;;;;;;;7.30;6.60;;;;;;;12.39;84.31;94700.47;5076082;28;20200;-68
2023/05/21 03:02:53;;;;;;;7.32;6.45;;;;;;;12.29;83.87;94696.38;5076777;28;20201;-68
2023/05/21 03:05:24;;;;;;;7.22;6.38;;;;;;;12.23;84.04;94699.84;5076976;28;20254;-68
2023/05/21 03:07:52;;;;;;;7.90;6.43;;;;;;;12.25;83.97;94700.28;5076272;28;20594;-68
2023/05/21 03:10:21;;;;;;;7.72;7.03;;;;;;;12.19;84.07;94705.31;5076563;28;20197;-68
2023/05/21 03:12:49;;;;;;;8.63;7.03;;;;;;;12.16;83.59;94706.06;5075711;28;20233;-68
2023/05/21 03:15:22;;;;;;;8.02;7.10;;;;;;;12.11;83.30;94708.34;5076475;28;20544;-68
2023/05/21 03:17:54;;;;;;;7.22;6.53;;;;;;;12.13;83.41;94715.13;5076322;28;20233;-68
2023/05/21 03:20:21;;;;;;;7.13;6.47;;;;;;;12.14;83.70;94719.47;5076487;28;20207;-68
2023/05/21 03:22:49;;;;;;;7.47;6.25;;;;;;;12.17;83.94;94706.88;5076553;28;20246;-69
2023/05/21 03:25:20;;;;;;;7.82;6.40;;;;;;;12.20;84.26;94711.63;5076607;28;20491;-69
2023/05/21 03:27:48;;;;;;;8.32;6.60;;;;;;;12.26;84.64;94712.91;5076196;28;20224;-69
2023/05/21 03:30:18;;;;;;;7.00;6.30;;;;;;;12.27;84.17;94714.50;5075748;28;20201;-69
2023/05/21 03:32:48;;;;;;;7.20;6.40;;;;;;;12.28;84.02;94716.91;5075457;28;20205;-69
2023/05/21 03:35:21;;;;;;;7.47;6.75;;;;;;;12.30;83.56;94719.31;5075401;28;20296;-69
2023/05/21 03:37:49;;;;;;;7.43;6.72;;;;;;;12.33;83.69;94723.28;5076310;28;20182;-69
2023/05/21 03:40:17;;;;;;;7.72;6.70;;;;;;;12.35;83.56;94718.19;5075345;28;20266;-69
2023/05/21 03:42:47;;;;;;;6.85;6.25;;;;;;;12.37;83.75;94719.41;5075273;28;20207;-68
2023/05/21 03:45:15;;;;;;;6.63;6.03;;;;;;;12.41;83.90;94708.41;5075829;28;20592;-67
2023/05/21 03:47:44;;;;;;;8.75;7.03;;;;;;;12.46;84.01;94717.19;5075464;28;20213;-67
2023/05/21 03:50:12;;;;;;;8.05;6.68;;;;;;;12.49;83.81;94712.84;5076323;28;20189;-67
2023/05/21 03:52:45;;;;;;;8.07;6.53;;;;;;;12.52;83.95;94718.44;5071015;28;20205;-68
2023/05/21 03:55:15;;;;;;;7.75;6.93;;;;;;;12.56;84.08;94715.72;5075756;28;20575;-67
2023/05/21 03:57:46;;;;;;;6.90;6.20;;;;;;;12.59;84.12;94714.97;5076249;28;20192;-68
2023/05/21 04:00:14;;;;;;;7.60;6.90;;;;;;;12.61;83.97;94712.63;5075057;28;20283;-68
2023/05/21 04:02:45;;;;;;;7.05;6.25;;;;;;;12.64;83.69;94708.34;5075869;28;20196;-68
2023/05/21 04:05:16;;;;;;;7.32;6.63;;;;;;;12.69;83.82;94713.53;5074537;28;20204;-67
2023/05/21 04:07:49;;;;;;;7.35;6.57;;;;;;;12.68;82.72;94706.41;5075182;28;20241;-67
2023/05/21 04:10:17;;;;;;;6.97;6.30;;;;;;;12.70;82.57;94710.38;5074388;28;20208;-66
2023/05/21 04:12:51;;;;;;;7.00;6.40;;;;;;;12.73;83.16;94709.63;5075529;28;20279;-66
2023/05/21 04:15:19;;;;;;;6.88;6.00;;;;;;;12.74;83.11;94702.94;5075252;28;20286;-66
2023/05/21 04:17:51;;;;;;;9.35;6.90;;;;;;;12.75;83.11;94706.50;5074953;28;20245;-66
2023/05/21 04:20:21;;;;;;;7.82;6.80;;;;;;;12.77;83.63;94702.16;5074109;28;20286;-66
2023/05/21 04:22:53;;;;;;;7.03;6.32;;;;;;;12.82;83.78;94711.31;5075437;28;20193;-66
2023/05/21 04:25:22;;;;;;;9.05;6.90;;;;;;;12.87;83.78;94711.00;5075454;28;20185;-67
2023/05/21 04:27:51;;;;;;;7.80;7.10;;;;;;;12.88;84.05;94712.59;5075138;28;20270;-67
2023/05/21 04:30:20;;;;;;;8.55;7.05;;;;;;;12.92;84.18;94707.88;5075414;28;20193;-67
2023/05/21 04:32:56;;;;;;;8.70;6.55;;;;;;;12.95;84.21;94705.16;5074337;28;20200;-70
2023/05/21 04:35:24;;;;;;;7.93;7.20;;;;;;;12.99;84.60;94711.53;5074677;28;20515;-65
2023/05/21 04:37:55;;;;;;;8.18;7.47;;;;;;;13.01;84.76;94708.41;5074993;28;20288;-66
2023/05/21 04:40:24;;;;;;;8.82;8.02;;;;;;;13.02;84.71;94708.03;5074287;28;20213;-65
2023/05/21 04:42:55;;;;;;;8.88;7.97;;;;;;;13.06;84.75;94712.81;5057542;28;20205;-66
2023/05/21 04:45:24;;;;;;;9.32;8.32;;;;;;;13.09;84.70;94703.75;5074592;28;20543;-66
2023/05/21 04:47:54;;;;;;;9.40;8.50;;;;;;;13.11;84.55;94710.50;5075174;28;20213;-66
2023/05/21 04:50:25;;;;;;;10.15;8.60;;;;;;;13.11;84.19;94707.75;5057356;28;20275;-66
2023/05/21 04:52:54;;;;;;;9.68;8.88;;;;;;;13.12;84.43;94716.84;5075048;28;20196;-66
2023/05/21 04:55:26;;;;;;;10.25;9.18;;;;;;;13.14;84.45;94709.72;5075317;28;20200;-66
2023/05/21 04:57:57;;;;;;;10.18;9.25;;;;;;;13.19;84.44;94709.41;5075136;28;20223;-66
2023/05/21 05:00:26;;;;;;;11.00;10.00;;;;;;;13.19;84.05;94706.63;5074892;28;20217;-66
2023/05/21 05:02:55;;;;;;;10.80;9.77;;;;;;;13.21;83.94;94709.81;5074119;28;20196;-66
2023/05/21 05:05:37;;;;;;;11.50;10.40;;;;;;;13.27;83.85;94701.22;5078150;28;20196;-66
2023/05/21 05:08:15;;;;;;;11.98;10.77;;;;;;;13.32;84.07;94701.66;5078378;28;20223;-65
2023/05/21 05:10:42;;;;;;;11.55;10.35;;;;;;;13.35;84.41;94709.22;5078963;28;20616;-66
2023/05/21 05:13:11;;;;;;;11.52;10.43;;;;;;;13.37;84.74;94704.09;5079096;28;20188;-66
2023/05/21 05:15:41;;;;;;;11.90;10.68;;;;;;;13.40;84.87;94703.34;5079075;28;20220;-66
2023/05/21 05:18:08;;;;;;;12.52;10.60;;;;;;;13.44;84.65;94706.94;5078045;28;20240;-66
2023/05/21 05:20:37;;;;;;;12.45;11.15;;;;;;;13.48;84.46;94706.97;5079185;28;20193;-66
2023/05/21 05:23:07;;;;;;;10.38;9.38;;;;;;;13.53;84.28;94708.59;5078469;28;20671;-66
2023/05/21 05:25:39;;;;;;;8.82;8.05;;;;;;;13.61;83.92;94711.06;5078545;28;20193;-66
2023/05/21 05:28:08;;;;;;;9.88;8.82;;;;;;;13.69;83.29;94706.41;5078017;28;20220;-66
2023/05/21 05:30:39;;;;;;;11.38;8.55;;;;;;;13.75;82.85;94715.94;5078534;28;20246;-66
2023/05/21 05:33:07;;;;;;;8.35;7.45;;;;;;;13.82;82.53;94707.69;5077777;28;20288;-66
2023/05/21 05:35:35;;;;;;;8.90;8.10;;;;;;;13.90;82.20;94701.03;5077841;28;20196;-66
2023/05/21 05:38:07;;;;;;;8.77;7.85;;;;;;;13.95;81.87;94702.66;5078494;28;20192;-66
2023/05/21 05:40:43;;;;;;;9.02;8.13;;;;;;;13.97;81.45;94703.84;5077690;28;20262;-66
2023/05/21 05:43:11;;;;;;;9.35;8.35;;;;;;;14.00;80.93;94699.53;5078452;28;20185;-66
2023/05/21 05:45:42;;;;;;;9.18;7.97;;;;;;;14.03;81.64;94703.53;5077567;28;20197;-66
2023/05/21 05:48:10;;;;;;;8.70;7.90;;;;;;;14.08;82.11;94706.72;5077507;28;20221;-66
2023/05/21 05:50:40;;;;;;;9.40;8.50;;;;;;;14.12;81.68;94696.44;5078350;28;20205;-66
2023/05/21 05:53:12;;;;;;;9.45;8.30;;;;;;;14.14;81.83;94696.06;5078236;28;20189;-66
2023/05/21 05:55:43;;;;;;;8.85;8.02;;;;;;;14.15;82.41;94698.47;5078148;28;20205;-66
2023/05/21 05:58:13;;;;;;;9.52;8.48;;;;;;;14.18;82.21;94697.69;5077328;28;20200;-66
2023/05/21 06:00:43;;;;;;;8.73;7.85;;;;;;;14.27;80.75;94702.09;5077899;28;20204;-66
2023/05/21 06:03:14;;;;;;;10.05;8.98;;;;;;;14.35;79.18;94703.75;5078090;28;20205;-66
2023/05/21 06:05:42;;;;;;;10.27;8.80;;;;;;;14.42;79.05;94699.06;5078028;28;20197;-66
2023/05/21 06:08:12;;;;;;;10.05;8.85;;;;;;;14.51;77.69;94709.03;5077302;28;20220;-66
2023/05/21 06:10:44;;;;;;;9.93;9.02;;;;;;;14.60;78.41;94701.19;5077141;28;20196;-66
2023/05/21 06:13:11;;;;;;;16.65;14.57;;;;;;;14.69;78.14;94698.84;5077673;28;20221;-66
2023/05/21 06:15:41;;;;;;;16.92;15.15;;;;;;;14.78;78.51;94699.31;5077685;28;20181;-66
2023/05/21 06:18:10;;;;;;;7.78;6.93;;;;;;;14.83;70.83;94690.59;5076709;28;20282;-66
2023/05/21 06:20:41;;;;;;;7.75;7.05;;;;;;;14.88;71.44;94692.97;5076932;28;20193;-66
2023/05/21 06:23:12;;;;;;;9.68;8.68;;;;;;;15.00;72.41;94693.84;5077709;28;20197;-66
2023/05/21 06:25:42;;;;;;;11.45;7.70;;;;;;;15.08;72.00;94685.16;5077665;28;20287;-66
2023/05/21 06:28:09;;;;;;;8.10;6.93;;;;;;;15.13;68.60;94697.84;5077371;28;20582;-66
2023/05/21 06:30:36;;;;;;;7.95;7.13;;;;;;;15.12;69.01;94688.72;5076888;28;20193;-66
2023/05/21 06:33:05;;;;;;;7.63;7.00;;;;;;;15.13;69.53;94686.75;5077102;28;20201;-66
2023/05/21 06:35:35;;;;;;;7.78;6.97;;;;;;;15.12;69.32;94687.94;5077237;28;20181;-66
2023/05/21 06:38:11;;;;;;;7.20;6.53;;;;;;;15.14;68.38;94688.31;5076610;28;20186;-66
2023/05/21 06:40:39;;;;;;;6.47;5.90;;;;;;;15.13;67.93;94681.97;5077426;28;20184;-65
2023/05/21 06:43:15;;;;;;;8.30;6.05;;;;;;;15.12;67.15;94682.38;5077377;28;20211;-66
2023/05/21 06:45:43;;;;;;;6.13;5.53;;;;;;;15.12;67.31;94679.59;5076511;28;20197;-66
2023/05/21 06:48:12;;;;;;;9.27;6.32;;;;;;;15.12;67.45;94676.81;5076038;28;20217;-66
2023/05/21 06:50:42;;;;;;;7.13;6.40;;;;;;;15.14;67.75;94683.59;5076417;28;20665;-66
2023/05/21 06:53:10;;;;;;;7.00;6.30;;;;;;;15.17;68.36;94670.88;5076348;28;20193;-65
2023/05/21 06:55:39;;;;;;;7.90;6.10;;;;;;;15.22;68.54;94678.06;5076909;28;20217;-65
2023/05/21 06:58:13;;;;;;;7.72;6.30;;;;;;;15.24;67.32;94681.22;5075786;28;20208;-66
2023/05/21 07:00:48;;;;;;;5.95;5.35;;;;;;;15.29;65.63;94680.84;5076178;28;20200;-66
2023/05/21 07:03:18;;;;;;;8.18;5.90;;;;;;;15.34;65.35;94670.13;5076095;28;20192;-66
2023/05/21 07:05:47;;;;;;;7.45;5.53;;;;;;;15.44;65.60;94670.56;5077068;28;20182;-66
2023/05/21 07:08:18;;;;;;;7.07;6.05;;;;;;;15.53;65.06;94666.19;5075897;28;20240;-65
2023/05/21 07:10:50;;;;;;;7.30;5.80;;;;;;;15.56;64.18;94664.63;5076557;28;20182;-66
2023/05/21 07:13:21;;;;;;;6.38;5.72;;;;;;;15.58;64.70;94660.28;5076384;28;20197;-66
2023/05/21 07:15:53;;;;;;;6.78;6.07;;;;;;;15.62;64.41;94669.41;5075984;28;20196;-66
2023/05/21 07:18:21;;;;;;;6.65;5.95;;;;;;;15.73;64.51;94660.31;5075438;28;20257;-66
2023/05/21 07:20:52;;;;;;;7.00;6.30;;;;;;;15.83;63.46;94663.09;5075457;28;20254;-67
2023/05/21 07:23:27;;;;;;;6.55;5.80;;;;;;;15.92;63.43;94668.25;5076089;28;20197;-67
2023/05/21 07:25:57;;;;;;;6.75;5.53;;;;;;;15.99;63.37;94668.25;5074964;28;20563;-66
2023/05/21 07:28:28;;;;;;;6.05;5.45;;;;;;;16.08;63.70;94660.31;5075205;28;20225;-66
2023/05/21 07:30:58;;;;;;;8.27;5.40;;;;;;;16.16;63.26;94669.47;5075235;28;20221;-66
2023/05/21 07:33:25;;;;;;;8.07;5.88;;;;;;;16.26;63.05;94673.41;5075875;28;20212;-66
2023/05/21 07:35:52;;;;;;;8.00;6.05;;;;;;;16.37;63.74;94674.97;5075680;28;20201;-66
2023/05/21 07:38:23;;;;;;;6.60;5.90;;;;;;;16.59;62.80;94667.41;5075748;28;20204;-66
2023/05/21 07:40:51;;;;;;;5.97;5.03;;;;;;;16.70;60.87;94663.78;5076177;28;20189;-66
2023/05/21 07:43:23;;;;;;;6.55;5.45;;;;;;;16.73;60.98;94665.75;5075891;28;20201;-66
2023/05/21 07:45:50;;;;;;;7.07;6.35;;;;;;;16.77;62.16;94669.38;5075565;28;20204;-66
2023/05/21 07:48:23;;;;;;;7.32;5.90;;;;;;;16.89;61.52;94663.38;5075250;28;20213;-66
2023/05/21 07:50:51;;;;;;;6.10;5.50;;;;;;;16.95;61.22;94664.53;5076086;28;20258;-66
2023/05/21 07:53:22;;;;;;;5.93;5.43;;;;;;;17.00;59.34;94652.97;5075150;28;20201;-66
2023/05/21 07:55:51;;;;;;;6.63;5.35;;;;;;;17.11;59.85;94658.50;5075770;28;20244;-66
2023/05/21 07:58:22;;;;;;;6.82;5.82;;;;;;;17.20;60.91;94653.28;5076002;28;20185;-69
2023/05/21 08:00:52;;;;;;;6.40;5.40;;;;;;;17.28;58.49;94659.59;5074961;28;20205;-66
2023/05/21 08:03:29;;;;;;;8.23;5.57;;;;;;;17.39;59.18;94660.34;5074926;28;20189;-66
2023/05/21 08:06:01;;;;;;;7.00;5.32;;;;;;;17.49;57.07;94653.13;5075842;28;20233;-66
2023/05/21 08:08:29;;;;;;;9.13;5.45;;;;;;;17.51;57.32;94662.69;5074609;28;20644;-65
2023/05/21 08:10:56;;;;;;;5.35;4.85;;;;;;;17.48;57.62;94660.69;5074596;28;20193;-69
2023/05/21 08:13:24;;;;;;;6.25;5.18;;;;;;;17.50;57.21;94657.50;5075500;28;20601;-65
2023/05/21 08:15:55;;;;;;;6.50;5.00;;;;;;;17.56;55.40;94651.09;5072667;28;20215;-65
2023/05/21 08:18:30;;;;;;;6.93;4.40;;;;;;;17.67;51.83;94656.59;5075069;28;20229;-66
2023/05/21 08:21:03;;;;;;;6.35;4.78;;;;;;;17.87;50.18;94662.47;5075619;28;20197;-64
2023/05/21 08:23:31;;;;;;;5.75;4.47;;;;;;;17.98;49.14;94659.59;5075566;28;20192;-64
2023/05/21 08:26:00;;;;;;;8.52;4.50;;;;;;;18.04;50.01;94666.31;5075753;28;20186;-64
2023/05/21 08:28:28;;;;;;;6.57;4.40;;;;;;;18.09;50.10;94657.53;5074607;28;20208;-64
2023/05/21 08:30:59;;;;;;;4.63;4.20;;;;;;;18.14;50.15;94665.44;5075487;28;20201;-63
2023/05/21 08:33:31;;;;;;;5.35;4.10;;;;;;;18.24;47.36;94666.56;5075687;28;20181;-63
2023/05/21 08:36:02;;;;;;;5.15;3.83;;;;;;;18.34;46.86;94662.88;5075645;28;20185;-63
2023/05/21 08:38:32;;;;;;;5.38;4.22;;;;;;;18.39;48.22;94653.25;5074334;28;20185;-63
2023/05/21 08:41:01;;;;;;;4.60;4.20;;;;;;;18.39;47.69;94665.22;5075305;28;20184;-63
2023/05/21 08:43:31;;;;;;;6.72;4.05;;;;;;;18.40;49.30;94658.41;5075222;28;20517;-63
2023/05/21 08:46:04;;;;;;;5.15;4.05;;;;;;;18.38;47.25;94660.84;5074981;28;20205;-63
2023/05/21 08:48:35;;;;;;;6.00;3.78;;;;;;;18.38;47.35;94663.63;5074505;28;20228;-63
2023/05/21 08:51:03;;;;;;;4.32;3.92;;;;;;;18.38;46.65;94669.22;5075001;28;20504;-63
2023/05/21 08:53:35;;;;;;;5.53;4.38;;;;;;;18.47;47.53;94654.78;5074613;28;20197;-63
2023/05/21 08:56:04;;;;;;;5.95;3.97;;;;;;;18.57;45.86;94653.88;5075222;28;20268;-63
2023/05/21 08:58:33;;;;;;;4.63;4.15;;;;;;;18.76;46.50;94644.13;5074159;28;20212;-63
2023/05/21 09:01:03;;;;;;;5.28;3.67;;;;;;;19.03;45.68;94652.63;5075355;28;20197;-63
2023/05/21 09:03:31;;;;;;;5.10;3.80;;;;;;;19.16;45.89;94653.63;5075819;28;20280;-63
2023/05/21 09:06:01;;;;;;;5.18;4.28;;;;;;;19.28;46.24;94651.50;5074734;28;20310;-63
2023/05/21 09:08:34;;;;;;;6.35;4.07;;;;;;;19.52;43.89;94653.16;5074757;28;20224;-64
2023/05/21 09:11:02;;;;;;;7.05;4.25;;;;;;;19.68;44.80;94658.16;5075119;28;20185;-63
2023/05/21 09:13:32;;;;;;;4.30;3.90;;;;;;;19.63;45.03;94653.84;5074906;28;20185;-63
2023/05/21 09:15:59;;;;;;;4.38;3.92;;;;;;;19.59;45.44;94643.88;5074664;28;20615;-64
2023/05/21 09:18:30;;;;;;;7.20;4.45;;;;;;;19.57;43.82;94652.72;5075008;28;20228;-63
2023/05/21 09:21:01;;;;;;;6.95;4.38;;;;;;;19.59;45.19;94655.88;5074964;28;20189;-63
2023/05/21 09:23:42;;;;;;;5.05;4.30;;;;;;;19.51;45.81;94651.59;5074702;28;20212;-64
2023/05/21 09:26:15;;;;;;;6.78;4.05;;;;;;;19.64;48.54;94655.41;5073811;28;20193;-64
2023/05/21 09:28:43;;;;;;;5.05;4.25;;;;;;;19.85;45.10;94654.31;5074662;28;20216;-63
2023/05/21 09:31:13;;;;;;;6.85;4.18;;;;;;;19.99;44.11;94653.31;5073998;28;20204;-63
2023/05/21 09:33:49;;;;;;;4.97;4.50;;;;;;;20.06;44.78;94647.59;5074684;28;20531;-64
2023/05/21 09:36:22;;;;;;;8.23;4.45;;;;;;;20.14;45.39;94646.25;5073910;28;20201;-63
2023/05/21 09:38:56;;;;;;;6.18;4.05;;;;;;;20.16;43.70;94651.44;5073773;28;20197;-63
2023/05/21 09:41:31;;;;;;;5.97;4.30;;;;;;;20.20;45.88;94636.16;5074167;28;20208;-63
2023/05/21 09:44:01;;;;;;;4.38;3.97;;;;;;;20.31;44.35;94640.78;5074981;28;20181;-63
2023/05/21 09:46:38;;;;;;;6.35;4.35;;;;;;;20.28;42.61;94645.22;5073681;28;20567;-63
2023/05/21 09:49:09;;;;;;;5.18;4.32;;;;;;;20.28;42.62;94641.63;5074735;28;20273;-63
2023/05/21 09:51:42;;;;;;;4.25;3.70;;;;;;;20.28;42.63;94645.22;5078074;28;20185;-63
2023/05/21 09:54:17;;;;;;;4.03;3.72;;;;;;;20.38;40.12;94643.47;5077694;28;20288;-63
2023/05/21 09:56:48;;;;;;;4.55;3.80;;;;;;;20.43;40.91;94634.56;5077384;28;20200;-63
2023/05/21 09:59:17;;;;;;;6.63;3.80;;;;;;;20.49;41.03;94641.28;5077959;28;20197;-63
2023/05/21 10:01:46;;;;;;;4.88;3.83;;;;;;;20.59;41.35;94640.31;5078247;28;20181;-62
2023/05/21 10:04:17;;;;;;;4.43;4.00;;;;;;;20.74;41.66;94642.88;5077449;28;20204;-63
2023/05/21 10:06:50;;;;;;;5.03;3.83;;;;;;;20.72;41.80;94631.28;5077208;28;20534;-63
2023/05/21 10:09:23;;;;;;;4.30;3.72;;;;;;;20.80;41.44;94627.13;5078414;28;20209;-63
2023/05/21 10:11:53;;;;;;;5.50;3.50;;;;;;;20.84;41.33;94625.03;5077449;28;20208;-63
2023/05/21 10:14:23;;;;;;;4.70;3.95;;;;;;;20.90;41.04;94629.72;5077374;28;20196;-63
2023/05/21 10:16:53;;;;;;;6.07;4.30;;;;;;;20.95;40.61;94631.22;5074899;28;20625;-63
2023/05/21 10:19:20;;;;;;;4.35;3.60;;;;;;;20.96;40.61;94632.03;5076570;28;20294;-63
2023/05/21 10:21:50;;;;;;;6.63;4.07;;;;;;;20.97;39.71;94625.97;5076856;28;20208;-64
2023/05/21 10:24:24;;;;;;;4.10;3.70;;;;;;;20.97;41.20;94617.56;5078239;28;20185;-62
2023/05/21 10:26:55;;;;;;;5.30;3.80;;;;;;;21.05;42.21;94613.38;5076750;28;20249;-62
2023/05/21 10:29:28;;;;;;;4.88;4.40;;;;;;;20.80;39.64;94613.88;5077931;28;20240;-62
2023/05/21 10:31:56;;;;;;;7.28;4.43;;;;;;;20.65;39.58;94626.59;5076638;28;20189;-62
2023/05/21 10:34:24;;;;;;;7.35;4.80;;;;;;;20.49;42.11;94621.66;5077932;28;20197;-62
2023/05/21 10:36:54;;;;;;;5.07;4.50;;;;;;;20.28;41.06;94627.63;5077673;28;20251;-62
2023/05/21 10:39:25;;;;;;;6.20;5.00;;;;;;;20.15;42.62;94622.66;5076914;28;20205;-62
2023/05/21 10:42:01;;;;;;;6.75;4.32;;;;;;;20.10;40.68;94622.34;5077751;28;20196;-64
2023/05/21 10:44:41;;;;;;;5.85;4.57;;;;;;;20.11;42.84;94613.50;5076527;28;20204;-62
2023/05/21 10:47:42;;;;;;;5.68;4.03;;;;;;;20.17;41.66;94620.22;5077520;28;20666;-62
2023/05/21 10:50:26;;;;;;;6.20;4.25;;;;;;;20.07;43.96;94614.78;5076334;28;20270;-62
2023/05/21 10:53:02;;;;;;;4.20;3.70;;;;;;;19.96;43.11;94617.75;5076349;28;20283;-62
2023/05/21 10:55:43;;;;;;;5.45;3.75;;;;;;;19.87;43.85;94614.72;5077619;28;20200;-62
2023/05/21 10:58:47;;;;;;;5.63;3.65;;;;;;;19.74;42.99;94614.50;5076533;28;20241;-62
2023/05/21 11:01:18;;;;;;;4.72;3.80;;;;;;;19.59;41.43;94611.09;5074962;28;20201;-62
2023/05/21 11:03:47;;;;;;;5.72;4.15;;;;;;;19.52;43.83;94613.22;5077362;28;20188;-62
2023/05/21 11:06:23;;;;;;;6.25;4.20;;;;;;;19.51;44.92;94617.25;5076210;28;20208;-62
2023/05/21 11:08:52;;;;;;;4.50;3.85;;;;;;;19.47;43.35;94623.66;5075973;28;20231;-62
2023/05/21 11:11:44;;;;;;;4.22;3.90;;;;;;;19.43;43.92;94610.97;5076673;28;20201;-62
2023/05/21 11:14:58;;;;;;;5.28;4.30;;;;;;;19.38;45.58;94612.19;5077041;28;20185;-62
2023/05/21 11:17:43;;;;;;;7.03;4.30;;;;;;;19.34;45.51;94613.47;5076506;28;20236;-62
2023/05/21 11:20:12;;;;;;;6.07;4.57;;;;;;;19.29;45.76;94611.16;5075932;28;20200;-62
2023/05/21 11:22:43;;;;;;;6.68;4.85;;;;;;;19.24;46.03;94612.41;5076017;28;20232;-62
2023/05/21 11:25:14;;;;;;;4.90;4.18;;;;;;;19.18;46.34;94603.69;5075834;28;20201;-62
2023/05/21 11:27:51;;;;;;;4.75;4.28;;;;;;;19.15;46.12;94606.53;5076331;28;20205;-62
2023/05/21 11:30:20;;;;;;;7.72;4.95;;;;;;;19.16;46.14;94608.13;5075547;28;20213;-62
2023/05/21 11:33:20;;;;;;;7.70;4.93;;;;;;;19.21;45.89;94605.66;5076514;28;20231;-62
2023/05/21 11:36:02;;;;;;;7.75;5.40;;;;;;;19.38;47.13;94595.41;5076218;28;20219;-62
2023/05/21 11:38:32;;;;;;;5.95;4.82;;;;;;;19.38;46.18;94601.00;5075488;28;20196;-62
2023/05/21 11:41:05;;;;;;;5.85;4.72;;;;;;;19.34;45.17;94591.88;5076380;28;20213;-63
2023/05/21 11:43:34;;;;;;;8.02;4.85;;;;;;;19.29;46.50;94583.97;5075699;28;20300;-62
2023/05/21 11:46:04;;;;;;;5.18;4.07;;;;;;;19.21;46.31;94588.88;5076503;28;20208;-62
2023/05/21 11:48:34;;;;;;;6.53;4.93;;;;;;;19.15;46.14;94589.78;5076141;28;20189;-62